createdAt,value
2022-10-07T00:02:35.645Z,12.30
2022-10-07T00:06:37.692Z,12.29
2022-10-07T00:10:41.680Z,12.33
2022-10-07T00:14:44.534Z,12.42
2022-10-07T00:18:48.510Z,12.36
2022-10-07T00:22:51.302Z,12.29
2022-10-07T00:26:53.413Z,12.30
2022-10-07T00:31:06.841Z,12.32
2022-10-07T00:35:09.060Z,12.38
2022-10-07T00:39:13.831Z,12.32
2022-10-07T00:43:26.342Z,12.38
2022-10-07T00:47:31.035Z,12.35
2022-10-07T00:51:35.279Z,12.28
2022-10-07T00:55:37.345Z,12.12
2022-10-07T00:59:40.175Z,11.93
2022-10-07T01:03:43.889Z,11.97
2022-10-07T01:07:48.112Z,12.00
2022-10-07T01:11:53.167Z,12.04
2022-10-07T01:16:00.888Z,11.95
2022-10-07T01:20:11.949Z,11.83
2022-10-07T01:24:15.244Z,11.76
2022-10-07T01:28:27.200Z,11.82
2022-10-07T01:32:56.724Z,11.71
2022-10-07T01:37:01.368Z,11.57
2022-10-07T01:41:09.668Z,11.61
2022-10-07T01:45:21.224Z,11.57
2022-10-07T01:49:24.079Z,11.60
2022-10-07T01:53:32.375Z,11.63
2022-10-07T01:57:40.798Z,11.68
2022-10-07T02:01:53.972Z,11.44
2022-10-07T02:06:21.279Z,11.51
2022-10-07T02:10:28.420Z,11.49
2022-10-07T02:14:45.692Z,11.37
2022-10-07T02:18:52.526Z,11.32
2022-10-07T02:22:58.174Z,11.37
2022-10-07T02:27:06.243Z,11.30
2022-10-07T02:31:11.323Z,11.27
2022-10-07T02:35:38.210Z,11.22
2022-10-07T02:39:43.018Z,11.12
2022-10-07T02:43:56.287Z,11.13
2022-10-07T02:48:11.426Z,11.21
2022-10-07T02:52:19.426Z,10.94
2022-10-07T02:56:26.268Z,10.95
2022-10-07T03:00:31.887Z,10.70
2022-10-07T03:04:34.278Z,10.76
2022-10-07T03:08:36.487Z,10.93
2022-10-07T03:12:38.501Z,10.87
2022-10-07T03:16:40.714Z,10.77
2022-10-07T03:20:43.803Z,10.77
2022-10-07T03:24:45.965Z,10.82
2022-10-07T03:28:49.143Z,10.73
2022-10-07T03:32:51.755Z,10.71
2022-10-07T03:36:55.338Z,10.59
2022-10-07T03:40:58.047Z,10.65
2022-10-07T03:45:00.316Z,10.60
2022-10-07T03:49:05.431Z,10.57
2022-10-07T03:53:10.063Z,10.56
2022-10-07T03:57:31.091Z,10.59
2022-10-07T04:01:35.688Z,10.53
2022-10-07T04:05:37.933Z,10.38
2022-10-07T04:09:41.148Z,10.48
2022-10-07T04:13:43.283Z,10.55
2022-10-07T04:17:47.140Z,10.61
2022-10-07T04:21:52.949Z,10.50
2022-10-07T04:25:55.475Z,10.52
2022-10-07T04:29:57.829Z,10.57
2022-10-07T04:33:59.836Z,10.63
2022-10-07T04:38:12.816Z,10.61
2022-10-07T04:42:35.131Z,10.56
2022-10-07T04:46:37.279Z,10.53
2022-10-07T04:50:45.555Z,10.43
2022-10-07T04:54:47.670Z,10.36
2022-10-07T04:58:49.916Z,10.48
2022-10-07T05:02:54.553Z,10.47
2022-10-07T05:06:57.762Z,10.44
2022-10-07T05:11:02.154Z,10.40
2022-10-07T05:15:42.821Z,10.45
2022-10-07T05:19:45.024Z,10.39
2022-10-07T05:23:47.355Z,10.39
2022-10-07T05:27:54.855Z,10.31
2022-10-07T05:32:03.732Z,10.38
2022-10-07T05:36:09.280Z,10.35
2022-10-07T05:40:12.834Z,10.44
2022-10-07T05:44:15.362Z,10.38
2022-10-07T05:48:18.075Z,10.40
2022-10-07T05:52:24.042Z,10.48
2022-10-07T05:56:27.307Z,10.57
2022-10-07T06:00:32.381Z,10.59
2022-10-07T06:04:35.448Z,10.80
2022-10-07T06:08:37.909Z,10.91
2022-10-07T06:12:59.330Z,11.00
2022-10-07T06:17:01.807Z,11.12
2022-10-07T06:21:08.805Z,11.22
2022-10-07T06:25:12.954Z,11.37
2022-10-07T06:29:18.761Z,11.48
2022-10-07T06:33:21.048Z,11.63
2022-10-07T06:37:23.891Z,11.76
2022-10-07T06:41:26.144Z,11.91
2022-10-07T06:45:42.807Z,12.13
2022-10-07T06:49:46.489Z,12.28
2022-10-07T06:53:54.353Z,12.38
2022-10-07T06:57:57.298Z,12.52
2022-10-07T07:02:00.087Z,12.72
2022-10-07T07:06:03.656Z,12.89
2022-10-07T07:10:09.137Z,13.08
2022-10-07T07:14:15.716Z,13.27
2022-10-07T07:18:24.637Z,13.44
2022-10-07T07:22:27.455Z,13.50
2022-10-07T07:26:30.496Z,13.66
2022-10-07T07:30:34.024Z,13.80
2022-10-07T07:34:38.314Z,14.03
2022-10-07T07:38:43.869Z,14.18
2022-10-07T07:42:46.286Z,14.32
2022-10-07T07:46:52.255Z,14.50
2022-10-07T07:50:56.038Z,14.66
2022-10-07T07:54:59.257Z,14.87
2022-10-07T07:59:04.011Z,15.01
2022-10-07T08:03:08.080Z,15.14
2022-10-07T08:07:13.392Z,15.32
2022-10-07T08:11:20.486Z,15.53
2022-10-07T08:15:25.065Z,15.73
2022-10-07T08:19:29.539Z,15.96
2022-10-07T08:23:32.362Z,16.10
2022-10-07T08:27:35.176Z,16.26
2022-10-07T08:31:37.400Z,16.49
2022-10-07T08:35:40.949Z,16.64
2022-10-07T08:39:43.107Z,16.83
2022-10-07T08:43:49.373Z,16.89
2022-10-07T08:47:53.341Z,17.02
2022-10-07T08:52:03.003Z,17.23
2022-10-07T08:56:20.571Z,17.39
2022-10-07T09:00:24.978Z,17.61
2022-10-07T09:04:45.043Z,17.72
2022-10-07T09:08:57.194Z,17.91
2022-10-07T09:13:05.636Z,18.12
2022-10-07T09:17:20.054Z,18.35
2022-10-07T09:21:25.664Z,18.42
2022-10-07T09:25:30.434Z,18.56
2022-10-07T09:29:32.469Z,18.72
2022-10-07T09:33:42.748Z,18.83
2022-10-07T09:37:56.056Z,18.97
2022-10-07T09:41:58.069Z,19.08
2022-10-07T09:46:01.412Z,19.29
2022-10-07T09:50:03.779Z,19.41
2022-10-07T09:54:18.611Z,19.50
2022-10-07T09:58:31.383Z,19.64
2022-10-07T10:02:33.870Z,19.73
2022-10-07T10:06:36.046Z,19.81
2022-10-07T10:10:37.988Z,19.97
2022-10-07T10:15:03.476Z,20.29
2022-10-07T10:19:21.884Z,20.32
2022-10-07T10:23:34.681Z,20.47
2022-10-07T10:27:50.755Z,20.60
2022-10-07T10:32:02.126Z,20.68
2022-10-07T10:36:17.232Z,20.79
2022-10-07T10:40:35.514Z,20.93
2022-10-07T10:44:56.658Z,20.96
2022-10-07T10:49:11.188Z,21.03
2022-10-07T10:53:25.207Z,21.04
2022-10-07T10:58:00.418Z,21.11
2022-10-07T11:02:26.786Z,21.31
2022-10-07T11:06:33.010Z,21.53
2022-10-07T11:10:40.963Z,21.54
2022-10-07T11:14:51.198Z,21.55
2022-10-07T11:19:19.982Z,21.54
2022-10-07T11:23:54.481Z,21.70
2022-10-07T11:28:07.279Z,21.91
2022-10-07T11:32:18.160Z,22.08
2022-10-07T11:36:31.098Z,22.17
2022-10-07T11:40:35.254Z,22.28
2022-10-07T11:45:00.312Z,22.34
2022-10-07T11:49:11.389Z,22.49
2022-10-07T11:53:22.001Z,22.36
2022-10-07T11:57:32.015Z,22.46
2022-10-07T12:01:47.354Z,22.50
2022-10-07T12:05:49.420Z,22.60
2022-10-07T12:10:07.528Z,22.68
2022-10-07T12:14:33.943Z,22.78
2022-10-07T12:18:37.398Z,22.93
2022-10-07T12:22:42.510Z,22.87
2022-10-07T12:26:46.024Z,22.97
2022-10-07T12:30:54.351Z,23.05
2022-10-07T12:34:56.548Z,23.13
2022-10-07T12:38:59.207Z,23.26
2022-10-07T12:43:22.150Z,23.25
2022-10-07T12:47:29.867Z,23.34
2022-10-07T12:51:41.506Z,23.34
2022-10-07T12:55:48.430Z,23.43
2022-10-07T12:59:59.595Z,23.39
2022-10-07T13:04:14.612Z,23.41
2022-10-07T13:08:33.239Z,23.55
2022-10-07T13:13:15.947Z,23.62
2022-10-07T13:17:28.383Z,23.58
2022-10-07T13:21:39.679Z,23.60
2022-10-07T13:25:53.264Z,23.66
2022-10-07T13:29:57.613Z,23.71
2022-10-07T13:34:14.135Z,23.76
2022-10-07T13:38:28.433Z,23.93
2022-10-07T13:42:30.995Z,23.99
2022-10-07T13:46:36.049Z,23.97
2022-10-07T13:50:38.600Z,23.88
2022-10-07T13:54:40.599Z,23.87
2022-10-07T13:58:43.312Z,23.90
2022-10-07T14:02:46.738Z,23.94
2022-10-07T14:06:56.129Z,23.86
2022-10-07T14:11:01.420Z,23.84
2022-10-07T14:15:13.308Z,23.80
2022-10-07T14:19:21.219Z,23.73
2022-10-07T14:23:31.444Z,23.71
2022-10-07T14:27:54.134Z,23.70
2022-10-07T14:32:29.053Z,23.69
2022-10-07T14:36:31.396Z,23.84
2022-10-07T14:40:33.422Z,23.81
2022-10-07T14:44:36.383Z,23.86
2022-10-07T14:48:39.216Z,23.89
2022-10-07T14:52:46.921Z,23.91
2022-10-07T14:56:49.669Z,23.88
2022-10-07T15:00:54.577Z,23.89
2022-10-07T15:04:56.759Z,23.91
2022-10-07T15:08:59.583Z,23.89
2022-10-07T15:13:04.245Z,23.93
2022-10-07T15:17:07.060Z,23.90
2022-10-07T15:21:09.206Z,23.92
2022-10-07T15:25:12.798Z,23.88
2022-10-07T15:29:15.423Z,23.87
2022-10-07T15:33:17.427Z,23.87
2022-10-07T15:37:20.422Z,23.83
2022-10-07T15:41:33.709Z,23.80
2022-10-07T15:45:36.166Z,23.90
2022-10-07T15:49:38.370Z,24.06
2022-10-07T15:53:40.416Z,24.28
2022-10-07T15:57:43.040Z,24.60
2022-10-07T16:01:45.363Z,24.93
2022-10-07T16:05:59.670Z,24.99
2022-10-07T16:10:01.876Z,25.00
2022-10-07T16:14:04.043Z,24.98
2022-10-07T16:18:06.619Z,24.87
2022-10-07T16:22:08.660Z,24.65
2022-10-07T16:26:30.680Z,24.34
2022-10-07T16:30:41.575Z,23.96
2022-10-07T16:34:44.620Z,23.40
2022-10-07T16:38:47.649Z,22.90
2022-10-07T16:42:51.188Z,22.40
2022-10-07T16:46:56.910Z,21.86
2022-10-07T16:50:59.472Z,21.36
2022-10-07T16:55:01.555Z,20.99
2022-10-07T16:59:05.983Z,20.71
2022-10-07T17:03:07.913Z,20.22
2022-10-07T17:07:10.743Z,19.86
2022-10-07T17:11:30.366Z,19.58
2022-10-07T17:15:32.380Z,19.16
2022-10-07T17:19:36.551Z,18.98
2022-10-07T17:23:38.597Z,18.71
2022-10-07T17:27:40.584Z,18.57
2022-10-07T17:31:44.719Z,18.47
2022-10-07T17:35:47.349Z,18.15
2022-10-07T17:39:49.463Z,18.08
2022-10-07T17:43:53.786Z,18.08
2022-10-07T17:47:57.612Z,17.90
2022-10-07T17:51:59.835Z,17.68
2022-10-07T17:56:03.077Z,17.60
2022-10-07T18:00:07.010Z,17.52
2022-10-07T18:04:22.520Z,17.38
2022-10-07T18:08:26.975Z,17.11
2022-10-07T18:12:47.791Z,17.12
2022-10-07T18:16:49.780Z,16.97
2022-10-07T18:20:54.662Z,16.93
2022-10-07T18:24:57.429Z,16.93
2022-10-07T18:29:01.225Z,16.76
2022-10-07T18:33:03.228Z,16.66
2022-10-07T18:37:05.242Z,16.59
2022-10-07T18:41:10.266Z,16.60
2022-10-07T18:45:12.306Z,16.55
2022-10-07T18:49:15.009Z,16.34
2022-10-07T18:53:17.102Z,16.10
2022-10-07T18:57:19.766Z,15.94
2022-10-07T19:01:24.801Z,15.81
2022-10-07T19:05:29.379Z,15.71
2022-10-07T19:09:35.343Z,15.75
2022-10-07T19:13:54.081Z,15.77
2022-10-07T19:17:56.594Z,15.76
2022-10-07T19:21:58.700Z,15.65
2022-10-07T19:26:01.863Z,15.55
2022-10-07T19:30:05.475Z,15.34
2022-10-07T19:34:11.302Z,15.17
2022-10-07T19:38:13.916Z,15.10
2022-10-07T19:42:17.146Z,15.13
2022-10-07T19:46:21.518Z,15.04
2022-10-07T19:50:23.889Z,14.84
2022-10-07T19:54:25.981Z,14.70
2022-10-07T19:58:28.511Z,14.78
2022-10-07T20:02:30.764Z,14.59
2022-10-07T20:06:34.633Z,14.57
2022-10-07T20:10:38.340Z,14.44
2022-10-07T20:14:40.402Z,14.59
2022-10-07T20:18:42.753Z,14.64
2022-10-07T20:22:49.261Z,14.66
2022-10-07T20:26:51.611Z,14.67
2022-10-07T20:30:54.686Z,14.66
2022-10-07T20:34:57.095Z,14.56
2022-10-07T20:39:20.710Z,14.52
2022-10-07T20:43:22.894Z,14.46
2022-10-07T20:47:27.949Z,14.35
2022-10-07T20:51:30.478Z,14.35
2022-10-07T20:55:36.509Z,14.14
2022-10-07T20:59:39.777Z,14.04
2022-10-07T21:03:42.329Z,14.21
2022-10-07T21:07:45.009Z,14.16
2022-10-07T21:11:48.366Z,14.25
2022-10-07T21:15:50.413Z,14.24
2022-10-07T21:19:52.446Z,14.20
2022-10-07T21:23:54.570Z,14.15
2022-10-07T21:27:56.538Z,14.13
2022-10-07T21:31:58.759Z,14.04
2022-10-07T21:36:10.875Z,13.50
2022-10-07T21:40:12.854Z,13.57
2022-10-07T21:44:15.474Z,13.74
2022-10-07T21:48:17.412Z,13.77
2022-10-07T21:52:19.519Z,13.83
2022-10-07T21:56:21.848Z,13.72
2022-10-07T22:00:23.839Z,13.75
2022-10-07T22:04:29.574Z,13.82
2022-10-07T22:08:37.388Z,13.83
2022-10-07T22:12:39.466Z,13.81
2022-10-07T22:16:42.458Z,13.76
2022-10-07T22:20:44.637Z,13.59
2022-10-07T22:24:46.634Z,13.51
2022-10-07T22:28:49.733Z,13.44
2022-10-07T22:32:51.762Z,13.42
2022-10-07T22:36:54.287Z,13.36
2022-10-07T22:40:56.259Z,13.26
2022-10-07T22:44:58.257Z,13.27
2022-10-07T22:49:00.679Z,13.28
2022-10-07T22:53:02.997Z,13.27
2022-10-07T22:57:06.986Z,13.26
2022-10-07T23:01:11.831Z,13.27
2022-10-07T23:05:13.973Z,13.23
2022-10-07T23:09:15.938Z,13.05
2022-10-07T23:13:17.893Z,12.92
2022-10-07T23:17:20.410Z,12.96
2022-10-07T23:21:25.827Z,13.04
2022-10-07T23:25:28.804Z,12.88
2022-10-07T23:29:32.721Z,12.93
2022-10-07T23:33:36.272Z,13.01
2022-10-07T23:37:38.297Z,12.92
2022-10-07T23:41:40.306Z,12.86
2022-10-07T23:45:45.692Z,12.89
2022-10-07T23:49:47.718Z,12.84
2022-10-07T23:53:50.157Z,12.74
2022-10-07T23:57:52.325Z,12.73
